createdAt,value
2019-03-19T00:00:42.876Z,19.55
2019-03-19T00:03:09.187Z,19.55
2019-03-19T00:05:35.493Z,19.54
2019-03-19T00:08:01.812Z,19.54
2019-03-19T00:10:28.126Z,19.53
2019-03-19T00:12:54.425Z,19.52
2019-03-19T00:15:20.733Z,19.52
2019-03-19T00:17:47.037Z,19.52
2019-03-19T00:20:13.378Z,19.50
2019-03-19T00:22:39.683Z,19.49
2019-03-19T00:25:05.992Z,19.48
2019-03-19T00:27:32.300Z,19.45
2019-03-19T00:29:58.604Z,19.44
2019-03-19T00:32:24.930Z,19.42
2019-03-19T00:34:51.281Z,19.39
2019-03-19T00:37:17.589Z,19.39
2019-03-19T00:39:43.898Z,19.39
2019-03-19T00:42:10.206Z,19.37
2019-03-19T00:44:36.509Z,19.36
2019-03-19T00:47:02.838Z,19.35
2019-03-19T00:49:29.156Z,19.33
2019-03-19T00:51:55.471Z,19.31
2019-03-19T00:54:21.793Z,19.29
2019-03-19T00:56:48.093Z,19.28
2019-03-19T00:59:14.412Z,19.27
2019-03-19T01:01:40.722Z,19.25
2019-03-19T01:04:07.031Z,19.23
2019-03-19T01:06:33.342Z,19.22
2019-03-19T01:08:59.652Z,19.22
2019-03-19T01:11:25.966Z,19.20
2019-03-19T01:13:52.316Z,19.17
2019-03-19T01:16:18.609Z,19.15
2019-03-19T01:18:44.915Z,19.13
2019-03-19T01:21:11.231Z,19.12
2019-03-19T01:23:37.541Z,19.10
2019-03-19T01:26:03.854Z,19.08
2019-03-19T01:28:30.158Z,19.06
2019-03-19T01:30:56.472Z,19.03
2019-03-19T01:33:22.774Z,19.03
2019-03-19T01:35:49.081Z,19.01
2019-03-19T01:38:15.394Z,18.98
2019-03-19T01:40:41.765Z,18.97
2019-03-19T01:43:08.070Z,18.96
2019-03-19T01:45:34.379Z,18.91
2019-03-19T01:48:00.693Z,18.91
2019-03-19T01:50:26.997Z,18.88
2019-03-19T01:52:53.308Z,18.88
2019-03-19T01:55:19.609Z,18.83
2019-03-19T01:57:45.922Z,18.85
2019-03-19T02:00:12.232Z,18.83
2019-03-19T02:02:38.542Z,18.81
2019-03-19T02:05:04.849Z,18.79
2019-03-19T02:07:31.160Z,18.76
2019-03-19T02:09:57.471Z,18.74
2019-03-19T02:12:23.779Z,18.73
2019-03-19T02:14:50.088Z,18.71
2019-03-19T02:17:16.394Z,18.69
2019-03-19T02:19:42.709Z,18.67
2019-03-19T02:22:09.020Z,18.65
2019-03-19T02:24:35.354Z,18.64
2019-03-19T02:27:01.667Z,18.63
2019-03-19T02:29:27.989Z,18.59
2019-03-19T02:31:54.298Z,18.60
2019-03-19T02:34:20.608Z,18.57
2019-03-19T02:36:46.921Z,18.55
2019-03-19T02:39:13.219Z,18.53
2019-03-19T02:41:39.522Z,18.51
2019-03-19T02:44:05.828Z,18.49
2019-03-19T02:46:32.148Z,18.47
2019-03-19T02:48:58.456Z,18.46
2019-03-19T02:51:24.764Z,18.44
2019-03-19T02:53:51.114Z,18.41
2019-03-19T02:56:31.811Z,18.40
2019-03-19T02:58:43.784Z,18.38
2019-03-19T03:01:10.066Z,18.38
2019-03-19T03:03:36.381Z,18.35
2019-03-19T03:06:02.692Z,18.33
2019-03-19T03:08:29.001Z,18.31
2019-03-19T03:10:55.306Z,18.29
2019-03-19T03:13:21.622Z,18.27
2019-03-19T03:15:47.937Z,18.24
2019-03-19T03:18:14.271Z,18.22
2019-03-19T03:20:40.571Z,18.20
2019-03-19T03:23:06.881Z,18.19
2019-03-19T03:25:33.193Z,18.17
2019-03-19T03:27:59.506Z,18.15
2019-03-19T03:30:25.818Z,18.12
2019-03-19T03:32:52.146Z,18.10
2019-03-19T03:35:18.478Z,18.08
2019-03-19T03:37:44.749Z,18.06
2019-03-19T03:40:11.052Z,18.04
2019-03-19T03:42:37.366Z,18.01
2019-03-19T03:45:03.682Z,17.98
2019-03-19T03:47:29.986Z,17.97
2019-03-19T03:49:56.297Z,17.95
2019-03-19T03:52:22.612Z,17.93
2019-03-19T03:54:48.915Z,17.90
2019-03-19T03:57:15.226Z,17.90
2019-03-19T03:59:41.539Z,17.88
2019-03-19T04:02:07.850Z,17.86
2019-03-19T04:04:34.179Z,17.84
2019-03-19T04:07:00.485Z,17.82
2019-03-19T04:09:26.801Z,17.80
2019-03-19T04:11:53.117Z,17.78
2019-03-19T04:14:19.427Z,17.76
2019-03-19T04:16:45.775Z,17.75
2019-03-19T04:19:12.079Z,17.72
2019-03-19T04:21:38.387Z,17.70
2019-03-19T04:24:04.697Z,17.69
2019-03-19T04:26:31.028Z,17.63
2019-03-19T04:28:57.342Z,17.65
2019-03-19T04:31:23.651Z,17.63
2019-03-19T04:33:49.953Z,17.53
2019-03-19T04:36:16.259Z,17.59
2019-03-19T04:38:42.582Z,17.58
2019-03-19T04:41:08.885Z,17.57
2019-03-19T04:43:35.194Z,17.56
2019-03-19T04:46:01.499Z,17.54
2019-03-19T04:48:27.819Z,17.56
2019-03-19T04:50:54.123Z,17.55
2019-03-19T04:53:20.440Z,17.56
2019-03-19T04:55:46.750Z,17.57
2019-03-19T04:58:13.060Z,17.59
2019-03-19T05:00:39.394Z,17.61
2019-03-19T05:03:05.701Z,17.64
2019-03-19T05:05:32.004Z,17.66
2019-03-19T05:07:58.312Z,17.65
2019-03-19T05:10:24.622Z,17.74
2019-03-19T05:12:50.950Z,17.78
2019-03-19T05:15:17.260Z,17.82
2019-03-19T05:17:43.568Z,17.83
2019-03-19T05:20:09.884Z,17.85
2019-03-19T05:22:36.196Z,17.90
2019-03-19T05:25:02.518Z,17.96
2019-03-19T05:27:37.008Z,18.03
2019-03-19T05:29:55.121Z,18.09
2019-03-19T05:32:21.430Z,18.16
2019-03-19T05:34:47.760Z,18.23
2019-03-19T05:37:14.066Z,18.28
2019-03-19T05:39:40.370Z,18.35
2019-03-19T05:42:06.720Z,18.49
2019-03-19T05:44:32.990Z,18.77
2019-03-19T05:46:59.334Z,19.03
2019-03-19T05:49:25.641Z,19.12
2019-03-19T05:51:51.957Z,18.83
2019-03-19T05:54:18.275Z,18.65
2019-03-19T05:56:44.602Z,18.49
2019-03-19T05:59:10.940Z,18.47
2019-03-19T06:01:37.245Z,18.50
2019-03-19T06:04:03.588Z,18.45
2019-03-19T06:06:29.893Z,18.40
2019-03-19T06:08:56.200Z,18.34
2019-03-19T06:11:22.510Z,18.06
2019-03-19T06:13:48.819Z,17.89
2019-03-19T06:16:15.146Z,17.71
2019-03-19T06:18:41.482Z,17.63
2019-03-19T06:21:07.792Z,17.54
2019-03-19T06:23:34.106Z,17.45
2019-03-19T06:26:00.413Z,17.42
2019-03-19T06:28:26.728Z,17.32
2019-03-19T06:30:53.036Z,17.15
2019-03-19T06:33:19.341Z,17.11
2019-03-19T06:35:45.656Z,17.14
2019-03-19T06:38:11.965Z,17.58
2019-03-19T06:40:38.277Z,17.89
2019-03-19T06:43:04.589Z,18.08
2019-03-19T06:45:30.921Z,18.18
2019-03-19T06:47:57.227Z,18.20
2019-03-19T06:50:23.533Z,18.25
2019-03-19T06:52:49.845Z,18.28
2019-03-19T06:55:16.143Z,18.30
2019-03-19T06:57:42.464Z,18.36
2019-03-19T07:00:08.755Z,18.34
2019-03-19T07:02:35.069Z,18.41
2019-03-19T07:05:01.382Z,18.50
2019-03-19T07:07:27.744Z,18.59
2019-03-19T07:09:54.054Z,18.71
2019-03-19T07:12:20.394Z,18.88
2019-03-19T07:14:46.716Z,18.85
2019-03-19T07:17:13.041Z,18.87
2019-03-19T07:19:39.396Z,18.99
2019-03-19T07:22:05.702Z,18.92
2019-03-19T07:24:32.011Z,18.95
2019-03-19T07:26:58.352Z,18.93
2019-03-19T07:29:24.640Z,18.96
2019-03-19T07:31:50.949Z,19.01
2019-03-19T07:34:30.258Z,19.02
2019-03-19T07:36:56.570Z,18.80
2019-03-19T07:39:22.883Z,18.84
2019-03-19T07:41:49.190Z,19.01
2019-03-19T07:44:15.495Z,19.25
2019-03-19T07:46:41.805Z,19.45
2019-03-19T07:49:08.113Z,19.69
2019-03-19T07:51:34.439Z,19.90
2019-03-19T07:54:00.760Z,20.08
2019-03-19T07:56:27.074Z,20.13
2019-03-19T07:58:53.381Z,20.21
2019-03-19T08:01:19.691Z,20.28
2019-03-19T08:03:46.004Z,20.33
2019-03-19T08:06:12.343Z,20.48
2019-03-19T08:08:38.653Z,20.67
2019-03-19T08:11:04.963Z,20.80
2019-03-19T08:13:31.302Z,20.86
2019-03-19T08:15:57.673Z,20.91
2019-03-19T08:18:24.043Z,21.04
2019-03-19T08:20:50.361Z,21.17
2019-03-19T08:23:16.670Z,21.28
2019-03-19T08:25:42.981Z,21.41
2019-03-19T08:28:09.288Z,21.54
2019-03-19T08:30:35.594Z,21.60
2019-03-19T08:33:01.903Z,21.74
2019-03-19T08:35:29.263Z,21.82
2019-03-19T08:40:45.737Z,21.78
2019-03-19T08:43:12.046Z,21.83
2019-03-19T08:45:38.353Z,21.92
2019-03-19T08:48:04.661Z,22.04
2019-03-19T08:50:30.980Z,22.16
2019-03-19T08:52:57.302Z,22.35
2019-03-19T08:55:23.602Z,22.43
2019-03-19T08:57:49.908Z,22.56
2019-03-19T09:00:16.222Z,22.59
2019-03-19T09:02:42.523Z,22.65
2019-03-19T09:05:08.837Z,22.73
2019-03-19T09:07:35.139Z,22.78
2019-03-19T09:10:01.452Z,22.86
2019-03-19T09:12:27.764Z,22.96
2019-03-19T09:14:54.075Z,23.01
2019-03-19T09:17:20.385Z,23.09
2019-03-19T09:19:46.693Z,23.24
2019-03-19T09:22:13.007Z,23.38
2019-03-19T09:24:39.332Z,23.49
2019-03-19T09:27:07.790Z,23.51
2019-03-19T09:29:34.098Z,23.59
2019-03-19T09:32:00.406Z,23.66
2019-03-19T09:34:26.722Z,23.75
2019-03-19T09:36:57.239Z,23.74
2019-03-19T09:39:19.385Z,23.46
2019-03-19T09:41:45.701Z,23.22
2019-03-19T09:44:12.012Z,23.29
2019-03-19T09:46:38.341Z,23.48
2019-03-19T09:49:04.649Z,23.59
2019-03-19T09:51:30.965Z,23.79
2019-03-19T09:53:57.267Z,23.99
2019-03-19T09:56:23.575Z,24.13
2019-03-19T09:58:49.888Z,24.04
2019-03-19T10:01:16.261Z,24.14
2019-03-19T10:03:51.548Z,24.28
2019-03-19T10:06:17.437Z,24.43
2019-03-19T10:08:43.806Z,24.50
2019-03-19T10:11:10.168Z,24.53
2019-03-19T10:13:47.612Z,24.43
2019-03-19T10:16:13.945Z,24.50
2019-03-19T10:18:40.248Z,24.64
2019-03-19T10:21:06.563Z,24.74
2019-03-19T10:23:32.962Z,24.62
2019-03-19T10:26:00.259Z,24.37
2019-03-19T10:28:26.568Z,24.25
2019-03-19T10:30:54.037Z,24.36
2019-03-19T10:33:21.340Z,24.50
2019-03-19T10:35:47.643Z,24.77
2019-03-19T10:38:17.208Z,24.88
2019-03-19T10:40:43.518Z,25.08
2019-03-19T10:43:09.831Z,25.14
2019-03-19T10:45:36.129Z,25.38
2019-03-19T10:48:02.455Z,25.45
2019-03-19T10:50:28.764Z,25.51
2019-03-19T10:52:55.098Z,25.55
2019-03-19T10:55:21.419Z,25.46
2019-03-19T10:57:47.734Z,25.48
2019-03-19T11:00:14.131Z,25.61
2019-03-19T11:02:41.852Z,25.64
2019-03-19T11:05:08.220Z,25.68
2019-03-19T11:07:34.492Z,25.80
2019-03-19T11:10:00.801Z,25.89
2019-03-19T11:12:27.117Z,25.89
2019-03-19T11:14:53.468Z,25.91
2019-03-19T11:17:19.782Z,25.90
2019-03-19T11:19:46.095Z,25.98
2019-03-19T11:22:12.403Z,26.01
2019-03-19T11:24:38.718Z,26.00
2019-03-19T11:27:05.023Z,26.03
2019-03-19T11:29:31.329Z,26.08
2019-03-19T11:31:57.658Z,26.10
2019-03-19T11:34:23.959Z,26.18
2019-03-19T11:36:57.794Z,26.28
2019-03-19T11:39:16.581Z,26.30
2019-03-19T11:41:42.898Z,26.25
2019-03-19T11:44:09.211Z,26.27
2019-03-19T11:46:35.551Z,26.22
2019-03-19T11:49:01.837Z,26.17
2019-03-19T11:51:28.150Z,26.23
2019-03-19T11:53:54.495Z,26.29
2019-03-19T11:56:20.905Z,26.39
2019-03-19T11:58:47.204Z,26.44
2019-03-19T12:01:13.510Z,26.44
2019-03-19T12:03:39.843Z,26.44
2019-03-19T12:06:06.147Z,26.41
2019-03-19T12:08:32.455Z,26.44
2019-03-19T12:10:58.763Z,26.46
2019-03-19T12:13:25.066Z,26.44
2019-03-19T12:15:51.369Z,26.47
2019-03-19T12:18:17.680Z,26.51
2019-03-19T12:20:44.020Z,26.47
2019-03-19T12:23:10.288Z,26.40
2019-03-19T12:25:36.592Z,26.42
2019-03-19T12:28:02.905Z,26.47
2019-03-19T12:30:29.211Z,26.50
2019-03-19T12:32:55.602Z,26.47
2019-03-19T12:35:21.916Z,26.56
2019-03-19T12:37:48.230Z,26.59
2019-03-19T12:40:14.546Z,26.53
2019-03-19T12:42:40.853Z,26.45
2019-03-19T12:45:07.162Z,26.40
2019-03-19T12:47:33.468Z,26.36
2019-03-19T12:49:59.825Z,26.31
2019-03-19T12:52:26.089Z,26.27
2019-03-19T12:54:52.588Z,26.23
2019-03-19T12:57:18.895Z,26.14
2019-03-19T12:59:45.368Z,26.17
2019-03-19T13:02:11.677Z,26.15
2019-03-19T13:04:37.985Z,26.14
2019-03-19T13:07:04.302Z,26.13
2019-03-19T13:09:30.611Z,26.14
2019-03-19T13:11:56.915Z,26.14
2019-03-19T13:14:23.225Z,26.08
2019-03-19T13:16:49.537Z,25.98
2019-03-19T13:19:15.910Z,25.87
2019-03-19T13:21:42.216Z,25.77
2019-03-19T13:24:08.525Z,25.71
2019-03-19T13:26:34.853Z,25.59
2019-03-19T13:29:01.170Z,25.49
2019-03-19T13:31:27.475Z,25.43
2019-03-19T13:33:53.786Z,25.33
2019-03-19T13:36:20.150Z,25.23
2019-03-19T13:38:46.463Z,25.17
2019-03-19T13:41:12.765Z,25.18
2019-03-19T13:43:39.101Z,25.16
2019-03-19T13:46:05.409Z,25.09
2019-03-19T13:48:31.760Z,25.00
2019-03-19T13:50:58.068Z,24.89
2019-03-19T13:53:24.376Z,24.81
2019-03-19T13:55:50.688Z,24.66
2019-03-19T13:58:16.991Z,24.64
2019-03-19T14:00:43.299Z,24.54
2019-03-19T14:03:09.604Z,24.46
2019-03-19T14:05:35.913Z,24.42
2019-03-19T14:08:02.254Z,24.33
2019-03-19T14:10:28.565Z,24.32
2019-03-19T14:12:54.867Z,24.25
2019-03-19T14:15:21.177Z,24.20
2019-03-19T14:17:47.489Z,24.11
2019-03-19T14:20:13.808Z,24.04
2019-03-19T14:22:40.119Z,23.97
2019-03-19T14:25:06.445Z,23.89
2019-03-19T14:27:32.757Z,23.85
2019-03-19T14:29:59.069Z,23.84
2019-03-19T14:32:25.382Z,23.81
2019-03-19T14:34:51.697Z,23.75
2019-03-19T14:37:18.011Z,23.69
2019-03-19T14:39:44.312Z,23.63
2019-03-19T14:42:10.628Z,23.50
2019-03-19T14:44:36.935Z,23.44
2019-03-19T14:47:03.270Z,23.43
2019-03-19T14:49:29.576Z,23.38
2019-03-19T14:51:55.885Z,23.35
2019-03-19T14:54:22.192Z,23.31
2019-03-19T14:56:48.500Z,23.21
2019-03-19T14:59:14.814Z,23.10
2019-03-19T15:01:41.124Z,23.05
2019-03-19T15:04:07.483Z,22.94
2019-03-19T15:06:33.853Z,22.85
2019-03-19T15:09:00.196Z,22.76
2019-03-19T15:11:26.511Z,22.78
2019-03-19T15:13:55.121Z,22.77
2019-03-19T15:16:19.308Z,22.70
2019-03-19T15:18:45.628Z,22.63
2019-03-19T15:21:11.956Z,22.59
2019-03-19T15:23:38.261Z,22.49
2019-03-19T15:26:04.574Z,22.42
2019-03-19T15:28:30.884Z,22.35
2019-03-19T15:30:57.196Z,22.27
2019-03-19T15:33:23.506Z,22.26
2019-03-19T15:38:35.148Z,22.24
2019-03-19T15:41:01.459Z,22.26
2019-03-19T15:43:27.765Z,22.24
2019-03-19T15:45:54.099Z,22.22
2019-03-19T15:48:20.410Z,22.16
2019-03-19T15:50:46.744Z,22.08
2019-03-19T15:53:13.053Z,22.12
2019-03-19T15:55:39.358Z,22.13
2019-03-19T15:58:05.668Z,22.10
2019-03-19T16:00:31.980Z,22.05
2019-03-19T16:02:58.293Z,21.99
2019-03-19T16:05:24.609Z,21.95
2019-03-19T16:07:51.131Z,21.91
2019-03-19T16:10:17.446Z,21.87
2019-03-19T16:12:43.806Z,21.81
2019-03-19T16:15:10.112Z,21.75
2019-03-19T16:17:36.415Z,21.72
2019-03-19T16:20:02.723Z,21.66
2019-03-19T16:22:29.031Z,21.59
2019-03-19T16:24:55.341Z,21.55
2019-03-19T16:27:21.698Z,21.51
2019-03-19T16:29:47.964Z,21.44
2019-03-19T16:32:14.264Z,21.39
2019-03-19T16:34:40.890Z,21.30
2019-03-19T16:37:07.218Z,21.23
2019-03-19T16:39:35.231Z,21.18
2019-03-19T16:42:00.020Z,21.17
2019-03-19T16:44:26.364Z,21.08
2019-03-19T16:46:52.679Z,21.00
2019-03-19T16:49:18.987Z,20.91
2019-03-19T16:51:45.296Z,20.87
2019-03-19T16:54:11.695Z,20.80
2019-03-19T16:56:38.015Z,20.78
2019-03-19T16:59:04.317Z,20.76
2019-03-19T17:01:30.628Z,20.72
2019-03-19T17:03:57.003Z,20.64
2019-03-19T17:06:23.269Z,20.53
2019-03-19T17:08:49.572Z,20.49
2019-03-19T17:11:15.904Z,20.47
2019-03-19T17:13:42.355Z,20.49
2019-03-19T17:16:08.655Z,20.42
2019-03-19T17:18:34.976Z,20.31
2019-03-19T17:21:01.295Z,20.26
2019-03-19T17:23:27.607Z,20.24
2019-03-19T17:25:53.915Z,20.18
2019-03-19T17:28:22.728Z,20.09
2019-03-19T17:30:46.535Z,20.06
2019-03-19T17:33:12.849Z,20.02
2019-03-19T17:35:39.181Z,20.02
2019-03-19T17:38:05.508Z,19.97
2019-03-19T17:40:41.317Z,19.90
2019-03-19T17:43:00.417Z,19.89
2019-03-19T17:45:26.728Z,19.87
2019-03-19T17:47:53.049Z,19.85
2019-03-19T17:50:19.366Z,19.78
2019-03-19T17:52:45.744Z,19.73
2019-03-19T17:55:11.996Z,19.74
2019-03-19T17:57:38.317Z,19.71
2019-03-19T18:00:04.750Z,19.72
2019-03-19T18:02:31.057Z,19.73
2019-03-19T18:04:57.370Z,19.66
2019-03-19T18:07:23.682Z,19.60
2019-03-19T18:09:49.999Z,19.51
2019-03-19T18:12:16.308Z,19.51
2019-03-19T18:14:42.661Z,19.47
2019-03-19T18:17:08.942Z,19.49
2019-03-19T18:19:35.250Z,19.55
2019-03-19T18:22:01.595Z,19.53
2019-03-19T18:24:27.910Z,19.43
2019-03-19T18:26:54.444Z,19.38
2019-03-19T18:29:20.764Z,19.37
2019-03-19T18:31:47.136Z,19.34
2019-03-19T18:34:13.406Z,19.32
2019-03-19T18:36:39.718Z,19.27
2019-03-19T18:39:06.026Z,19.28
2019-03-19T18:41:32.715Z,19.21
2019-03-19T18:43:59.226Z,19.12
2019-03-19T18:46:25.553Z,19.10
2019-03-19T18:48:51.871Z,19.07
2019-03-19T18:51:18.188Z,19.07
2019-03-19T18:53:48.441Z,18.97
2019-03-19T18:56:11.962Z,18.91
2019-03-19T18:58:38.244Z,18.93
2019-03-19T19:01:04.557Z,19.03
2019-03-19T19:03:30.929Z,19.09
2019-03-19T19:05:57.237Z,19.02
2019-03-19T19:08:23.557Z,18.90
2019-03-19T19:10:49.863Z,18.87
2019-03-19T19:13:16.175Z,18.90
2019-03-19T19:15:42.485Z,18.99
2019-03-19T19:18:08.871Z,19.14
2019-03-19T19:20:35.186Z,19.19
2019-03-19T19:23:02.970Z,18.95
2019-03-19T19:25:27.807Z,18.76
2019-03-19T19:27:54.114Z,18.69
2019-03-19T19:30:20.421Z,18.54
2019-03-19T19:32:46.732Z,18.45
2019-03-19T19:35:13.046Z,18.51
2019-03-19T19:37:39.381Z,18.62
2019-03-19T19:40:05.788Z,18.70
2019-03-19T19:42:32.095Z,18.80
2019-03-19T19:44:58.400Z,18.99
2019-03-19T19:47:24.714Z,19.16
2019-03-19T19:49:51.016Z,19.25
2019-03-19T19:52:17.324Z,19.30
2019-03-19T19:54:43.629Z,19.32
2019-03-19T19:57:11.193Z,19.32
2019-03-19T19:59:36.273Z,19.34
2019-03-19T20:02:02.637Z,19.30
2019-03-19T20:04:28.929Z,19.35
2019-03-19T20:06:55.308Z,19.35
2019-03-19T20:09:21.615Z,19.34
2019-03-19T20:11:47.937Z,19.33
2019-03-19T20:14:14.368Z,19.33
2019-03-19T20:16:40.707Z,19.33
2019-03-19T20:19:07.026Z,19.32
2019-03-19T20:21:33.374Z,19.31
2019-03-19T20:23:59.717Z,19.30
2019-03-19T20:26:26.029Z,19.29
2019-03-19T20:28:52.395Z,19.28
2019-03-19T20:31:18.705Z,19.26
2019-03-19T20:33:45.021Z,19.24
2019-03-19T20:36:11.337Z,19.28
2019-03-19T20:38:37.644Z,19.22
2019-03-19T20:41:03.957Z,19.30
2019-03-19T20:43:30.292Z,19.28
2019-03-19T20:45:56.598Z,19.25
2019-03-19T20:48:22.906Z,19.23
2019-03-19T20:50:49.214Z,19.21
2019-03-19T20:53:15.523Z,19.20
2019-03-19T20:55:41.828Z,19.18
2019-03-19T20:58:08.142Z,19.17
2019-03-19T21:00:34.444Z,19.14
2019-03-19T21:03:00.747Z,19.13
2019-03-19T21:05:27.053Z,19.11
2019-03-19T21:07:53.360Z,19.10
2019-03-19T21:10:19.668Z,19.08
2019-03-19T21:12:45.977Z,19.06
2019-03-19T21:15:12.292Z,19.05
2019-03-19T21:17:38.598Z,19.04
2019-03-19T21:20:04.904Z,19.00
2019-03-19T21:22:31.227Z,18.99
2019-03-19T21:24:57.546Z,18.97
2019-03-19T21:27:24.039Z,18.95
2019-03-19T21:29:52.271Z,18.93
2019-03-19T21:32:16.603Z,18.91
2019-03-19T21:34:42.912Z,18.89
2019-03-19T21:37:09.265Z,18.87
2019-03-19T21:39:35.584Z,18.87
2019-03-19T21:42:01.893Z,18.85
2019-03-19T21:44:28.221Z,18.83
2019-03-19T21:46:54.530Z,18.81
2019-03-19T21:49:20.855Z,18.79
2019-03-19T21:51:47.161Z,18.77
2019-03-19T21:54:13.543Z,18.75
2019-03-19T21:56:39.868Z,18.74
2019-03-19T21:59:06.214Z,18.72
2019-03-19T22:01:32.519Z,18.70
2019-03-19T22:04:03.088Z,18.69
2019-03-19T22:06:25.147Z,18.66
2019-03-19T22:08:51.453Z,18.63
2019-03-19T22:11:17.775Z,18.62
2019-03-19T22:13:44.087Z,18.59
2019-03-19T22:16:10.393Z,18.58
2019-03-19T22:18:36.703Z,18.56
2019-03-19T22:21:03.009Z,18.55
2019-03-19T22:23:29.312Z,18.54
2019-03-19T22:25:55.643Z,18.51
2019-03-19T22:28:21.960Z,18.50
2019-03-19T22:30:48.267Z,18.48
2019-03-19T22:33:14.575Z,18.46
2019-03-19T22:35:40.903Z,18.42
2019-03-19T22:38:07.209Z,18.41
2019-03-19T22:40:33.512Z,18.40
2019-03-19T22:42:59.827Z,18.37
2019-03-19T22:45:26.134Z,18.34
2019-03-19T22:47:52.439Z,18.33
2019-03-19T22:50:18.750Z,18.31
2019-03-19T22:52:45.076Z,18.29
2019-03-19T22:55:11.383Z,18.28
2019-03-19T22:57:37.692Z,18.26
2019-03-19T23:00:04.013Z,18.25
2019-03-19T23:02:30.319Z,18.24
2019-03-19T23:04:56.671Z,18.21
2019-03-19T23:07:22.980Z,18.19
2019-03-19T23:09:49.345Z,18.19
2019-03-19T23:12:15.621Z,18.17
2019-03-19T23:14:41.927Z,18.16
2019-03-19T23:17:08.232Z,18.13
2019-03-19T23:19:34.539Z,18.11
2019-03-19T23:22:00.847Z,18.09
2019-03-19T23:24:27.156Z,18.07
2019-03-19T23:26:53.461Z,18.05
2019-03-19T23:29:19.766Z,18.03
2019-03-19T23:31:46.073Z,18.01
2019-03-19T23:34:12.381Z,17.99
2019-03-19T23:36:38.690Z,17.96
2019-03-19T23:39:04.996Z,17.96
2019-03-19T23:41:31.326Z,17.94
2019-03-19T23:43:57.633Z,17.93
2019-03-19T23:46:23.934Z,17.91
2019-03-19T23:48:50.244Z,17.88
2019-03-19T23:51:16.549Z,17.87
2019-03-19T23:53:42.855Z,17.86
2019-03-19T23:56:09.157Z,17.83
2019-03-19T23:58:35.468Z,17.82
